createdAt,value
2022-11-12T00:04:35.576Z,5.72
2022-11-12T00:09:37.311Z,5.78
2022-11-12T00:14:38.951Z,6.18
2022-11-12T00:19:40.620Z,5.72
2022-11-12T00:24:42.280Z,5.88
2022-11-12T00:29:44.039Z,6.55
2022-11-12T00:34:46.006Z,5.93
2022-11-12T00:39:47.653Z,6.03
2022-11-12T00:44:50.001Z,6.30
2022-11-12T00:49:51.685Z,5.70
2022-11-12T00:54:53.341Z,5.35
2022-11-12T00:59:54.998Z,5.95
2022-11-12T01:04:56.693Z,5.78
2022-11-12T01:09:58.340Z,5.47
2022-11-12T01:15:00.099Z,5.78
2022-11-12T01:20:01.813Z,4.93
2022-11-12T01:25:03.721Z,5.65
2022-11-12T01:30:06.227Z,5.75
2022-11-12T01:35:08.136Z,5.57
2022-11-12T01:40:10.421Z,5.40
2022-11-12T01:45:15.930Z,5.72
2022-11-12T01:50:24.984Z,5.57
2022-11-12T01:55:32.269Z,6.30
2022-11-12T02:00:33.968Z,5.97
2022-11-12T02:05:38.120Z,6.50
2022-11-12T02:10:40.897Z,5.95
2022-11-12T02:15:43.069Z,6.18
2022-11-12T02:20:44.877Z,6.32
2022-11-12T02:25:46.544Z,6.47
2022-11-12T02:30:49.450Z,6.43
2022-11-12T02:35:51.099Z,6.50
2022-11-12T02:40:53.029Z,6.30
2022-11-12T02:45:54.913Z,6.20
2022-11-12T02:50:56.633Z,6.10
2022-11-12T02:55:59.249Z,5.95
2022-11-12T03:01:01.127Z,6.25
2022-11-12T03:06:02.943Z,5.95
2022-11-12T03:11:10.079Z,5.82
2022-11-12T03:16:11.842Z,6.20
2022-11-12T03:21:13.541Z,6.03
2022-11-12T03:26:15.244Z,6.10
2022-11-12T03:31:17.267Z,5.97
2022-11-12T03:36:19.017Z,5.90
2022-11-12T03:41:20.696Z,5.53
2022-11-12T03:46:22.436Z,5.80
2022-11-12T03:51:24.109Z,6.28
2022-11-12T03:56:25.758Z,5.93
2022-11-12T04:01:27.562Z,6.13
2022-11-12T04:06:47.929Z,6.22
2022-11-12T04:11:49.578Z,5.38
2022-11-12T04:17:23.438Z,6.38
2022-11-12T04:22:25.097Z,6.28
2022-11-12T04:27:34.240Z,6.70
2022-11-12T04:32:39.084Z,6.40
2022-11-12T04:37:47.514Z,6.93
2022-11-12T04:43:07.970Z,7.97
2022-11-12T04:48:09.645Z,7.15
2022-11-12T04:53:11.650Z,6.43
2022-11-12T04:58:13.369Z,6.60
2022-11-12T05:03:15.340Z,6.80
2022-11-12T05:08:16.998Z,7.07
2022-11-12T05:13:18.668Z,6.93
2022-11-12T05:18:20.380Z,6.60
2022-11-12T05:23:22.053Z,6.70
2022-11-12T05:28:23.971Z,6.07
2022-11-12T05:33:25.924Z,6.55
2022-11-12T05:38:27.867Z,6.65
2022-11-12T05:43:29.677Z,6.60
2022-11-12T05:48:32.078Z,6.97
2022-11-12T05:53:34.067Z,7.03
2022-11-12T05:58:36.709Z,6.97
2022-11-12T06:03:38.408Z,7.45
2022-11-12T06:08:40.213Z,7.32
2022-11-12T06:13:42.239Z,7.50
2022-11-12T06:18:43.924Z,7.90
2022-11-12T06:23:50.676Z,7.43
2022-11-12T06:28:52.905Z,8.10
2022-11-12T06:33:54.680Z,8.95
2022-11-12T06:38:56.433Z,9.05
2022-11-12T06:43:58.172Z,8.77
2022-11-12T06:48:59.815Z,7.97
2022-11-12T06:54:01.490Z,7.60
2022-11-12T06:59:03.300Z,7.50
2022-11-12T07:04:05.279Z,8.52
2022-11-12T07:09:07.144Z,8.23
2022-11-12T07:14:09.103Z,9.00
2022-11-12T07:19:10.802Z,8.25
2022-11-12T07:24:12.557Z,8.18
2022-11-12T07:29:24.952Z,8.68
2022-11-12T07:34:35.994Z,14.55
2022-11-12T07:39:37.807Z,10.15
2022-11-12T07:44:39.487Z,12.93
2022-11-12T07:49:41.239Z,11.23
2022-11-12T07:54:42.893Z,9.73
2022-11-12T07:59:46.332Z,12.35
2022-11-12T08:04:48.306Z,11.10
2022-11-12T08:09:49.966Z,10.02
2022-11-12T08:14:52.879Z,12.20
2022-11-12T08:19:55.271Z,10.93
2022-11-12T08:24:57.032Z,9.32
2022-11-12T08:29:58.683Z,11.32
2022-11-12T08:35:00.452Z,8.55
2022-11-12T08:40:02.210Z,8.02
2022-11-12T08:45:04.216Z,7.85
2022-11-12T08:50:06.386Z,8.13
2022-11-12T08:55:08.606Z,7.57
2022-11-12T09:00:12.357Z,7.32
2022-11-12T09:05:14.084Z,6.88
2022-11-12T09:10:15.854Z,8.70
2022-11-12T09:20:39.584Z,7.28
2022-11-12T09:25:42.209Z,7.15
2022-11-12T09:30:49.189Z,7.20
2022-11-12T09:35:51.325Z,7.68
2022-11-12T09:40:52.943Z,7.47
2022-11-12T09:46:13.981Z,7.35
2022-11-12T09:51:24.784Z,7.50
2022-11-12T09:56:28.340Z,7.45
2022-11-12T10:02:00.478Z,7.38
2022-11-12T10:07:13.617Z,7.18
2022-11-12T10:12:33.846Z,7.57
2022-11-12T10:17:44.127Z,7.68
2022-11-12T10:22:58.416Z,6.72
2022-11-12T10:28:06.236Z,7.05
2022-11-12T10:33:15.026Z,6.97
2022-11-12T10:38:25.752Z,6.97
2022-11-12T10:43:27.670Z,9.48
2022-11-12T10:48:35.641Z,6.72
2022-11-12T10:53:39.826Z,6.88
2022-11-12T10:58:41.494Z,6.72
2022-11-12T11:03:55.985Z,6.47
2022-11-12T11:09:12.891Z,6.95
2022-11-12T11:14:35.689Z,6.53
2022-11-12T11:19:42.582Z,6.03
2022-11-12T11:25:12.097Z,6.90
2022-11-12T11:30:17.996Z,6.22
2022-11-12T11:35:37.936Z,5.80
2022-11-12T11:40:50.608Z,6.00
2022-11-12T11:46:16.399Z,5.75
2022-11-12T11:51:55.744Z,5.90
2022-11-12T11:57:00.227Z,5.97
2022-11-12T12:02:21.625Z,5.43
2022-11-12T12:07:47.141Z,5.75
2022-11-12T12:13:06.358Z,5.05
2022-11-12T12:18:32.259Z,5.80
2022-11-12T12:23:45.861Z,5.72
2022-11-12T12:29:10.488Z,5.45
2022-11-12T12:34:38.839Z,5.07
2022-11-12T12:40:05.098Z,5.20
2022-11-12T12:45:29.610Z,5.32
2022-11-12T12:50:39.612Z,5.97
2022-11-12T12:55:44.679Z,5.38
2022-11-12T13:00:59.058Z,5.00
2022-11-12T13:06:22.806Z,5.20
2022-11-12T13:12:01.486Z,5.30
2022-11-12T13:17:04.427Z,5.00
2022-11-12T13:22:18.272Z,7.63
2022-11-12T13:27:42.553Z,5.15
2022-11-12T13:32:54.782Z,5.82
2022-11-12T13:37:58.552Z,5.78
2022-11-12T13:43:06.217Z,5.25
2022-11-12T13:48:12.773Z,5.47
2022-11-12T13:53:22.378Z,5.45
2022-11-12T13:58:29.904Z,5.22
2022-11-12T14:03:45.643Z,5.70
2022-11-12T14:09:05.881Z,5.55
2022-11-12T14:14:26.227Z,5.75
2022-11-12T14:19:49.900Z,7.57
2022-11-12T14:24:59.900Z,7.25
2022-11-12T14:30:08.440Z,9.02
2022-11-12T14:35:28.362Z,8.38
2022-11-12T14:40:52.011Z,7.32
2022-11-12T14:45:55.679Z,7.43
2022-11-12T14:51:05.925Z,7.40
2022-11-12T14:56:11.026Z,7.53
2022-11-12T15:06:57.769Z,8.07
2022-11-12T15:11:59.683Z,7.57
2022-11-12T15:17:01.867Z,9.52
2022-11-12T15:22:04.345Z,8.73
2022-11-12T15:27:35.036Z,7.93
2022-11-12T15:32:36.708Z,14.23
2022-11-12T15:37:42.717Z,8.15
2022-11-12T15:42:44.910Z,14.10
2022-11-12T15:47:47.259Z,13.50
2022-11-12T15:52:49.790Z,11.10
2022-11-12T15:57:53.024Z,11.35
2022-11-12T16:03:18.735Z,11.30
2022-11-12T16:08:20.438Z,10.75
2022-11-12T16:13:25.526Z,9.93
2022-11-12T16:18:27.377Z,10.93
2022-11-12T16:23:29.423Z,11.10
2022-11-12T16:28:31.368Z,12.38
2022-11-12T16:33:33.070Z,22.05
2022-11-12T16:38:34.783Z,16.98
2022-11-12T16:43:36.455Z,19.48
2022-11-12T16:48:38.929Z,19.17
2022-11-12T16:53:40.742Z,18.25
2022-11-12T16:58:42.467Z,20.35
2022-11-12T17:03:44.219Z,21.75
2022-11-12T17:08:48.156Z,22.98
2022-11-12T17:13:50.093Z,26.98
2022-11-12T17:18:55.804Z,29.33
2022-11-12T17:23:58.607Z,27.00
2022-11-12T17:29:06.574Z,29.17
2022-11-12T17:34:10.509Z,34.25
2022-11-12T17:39:13.259Z,38.83
2022-11-12T17:44:17.215Z,34.47
2022-11-12T17:49:19.121Z,27.95
2022-11-12T17:54:21.365Z,26.95
2022-11-12T17:59:23.212Z,27.15
2022-11-12T18:04:26.579Z,28.85
2022-11-12T18:09:31.594Z,29.73
2022-11-12T18:14:33.326Z,31.02
2022-11-12T18:19:35.026Z,32.50
2022-11-12T18:24:36.890Z,35.10
2022-11-12T18:29:40.251Z,35.83
2022-11-12T18:34:45.007Z,32.50
2022-11-12T18:39:46.744Z,33.35
2022-11-12T18:44:48.434Z,32.65
2022-11-12T18:49:50.177Z,35.03
2022-11-12T18:54:51.866Z,33.78
2022-11-12T18:59:55.021Z,30.73
2022-11-12T19:04:56.694Z,32.28
2022-11-12T19:09:58.379Z,32.00
2022-11-12T19:15:00.103Z,33.03
2022-11-12T19:20:01.792Z,29.95
2022-11-12T19:25:03.949Z,32.60
2022-11-12T19:30:06.869Z,30.77
2022-11-12T19:35:08.924Z,29.88
2022-11-12T19:40:11.592Z,28.35
2022-11-12T19:45:13.308Z,29.25
2022-11-12T19:50:14.982Z,27.98
2022-11-12T19:55:16.770Z,28.98
2022-11-12T20:00:18.659Z,30.15
2022-11-12T20:05:20.424Z,49.22
2022-11-12T20:10:22.156Z,32.17
2022-11-12T20:15:23.822Z,31.83
2022-11-12T20:20:25.538Z,29.80
2022-11-12T20:25:27.227Z,32.00
2022-11-12T20:30:28.870Z,30.33
2022-11-12T20:35:30.603Z,31.40
2022-11-12T20:40:32.780Z,30.58
2022-11-12T20:45:35.150Z,29.73
2022-11-12T20:50:36.985Z,28.08
2022-11-12T20:55:39.374Z,30.83
2022-11-12T21:00:41.129Z,30.85
2022-11-12T21:05:42.790Z,31.75
2022-11-12T21:10:49.151Z,30.42
2022-11-12T21:15:52.037Z,30.70
2022-11-12T21:21:00.365Z,29.63
2022-11-12T21:26:04.277Z,28.83
2022-11-12T21:31:09.330Z,30.40
2022-11-12T21:36:16.182Z,30.35
2022-11-12T21:41:22.006Z,28.77
2022-11-12T21:46:29.095Z,31.35
2022-11-12T21:51:32.064Z,29.60
2022-11-12T21:56:34.496Z,29.67
2022-11-12T22:01:36.284Z,30.00
2022-11-12T22:06:38.492Z,28.98
2022-11-12T22:11:40.336Z,30.00
2022-11-12T22:16:41.994Z,31.92
2022-11-12T22:21:43.639Z,30.70
2022-11-12T22:26:45.379Z,28.15
2022-11-12T22:31:47.307Z,27.52
2022-11-12T22:36:48.976Z,26.23
2022-11-12T22:41:50.712Z,27.02
2022-11-12T22:46:52.375Z,24.98
2022-11-12T22:51:54.086Z,26.13
2022-11-12T22:56:55.729Z,25.33
2022-11-12T23:01:57.391Z,25.67
2022-11-12T23:06:59.162Z,25.58
2022-11-12T23:12:00.990Z,26.60
2022-11-12T23:17:02.746Z,25.00
2022-11-12T23:22:07.931Z,25.65
2022-11-12T23:27:09.941Z,24.10
2022-11-12T23:32:12.154Z,24.00
2022-11-12T23:37:13.865Z,23.63
2022-11-12T23:42:15.588Z,24.92
2022-11-12T23:47:17.296Z,24.27
2022-11-12T23:52:19.197Z,24.38
2022-11-12T23:57:21.191Z,23.98
